Time;durP1;ratioP1;P1;durP2;ratioP2;P2;SDS_P1;SDS_P2;PMS_P1;PMS_P2;Temp;Humidity;BMP_temperature;BMP_pressure;BME280_temperature;BME280_humidity;BME280_pressure;Samples;Min_cycle;Max_cycle;Signal;HPM_P1;HPM_P2
2022/10/26 00:01:26;;;;;;;10.27;4.07;;;;;;;;;;5037031;28;20262;-66
2022/10/26 00:03:54;;;;;;;8.40;3.90;;;;;;;;;;5054959;28;20635;-66
2022/10/26 00:06:21;;;;;;;10.93;4.07;;;;;;;;;;5055115;28;20635;-66
2022/10/26 00:08:47;;;;;;;10.17;3.90;;;;;;;;;;5054610;28;20712;-66
2022/10/26 00:11:14;;;;;;;11.13;4.27;;;;;;;;;;5036664;28;20178;-66
2022/10/26 00:13:40;;;;;;;9.47;3.90;;;;;;;;;;5036519;28;20221;-67
2022/10/26 00:16:10;;;;;;;9.60;3.90;;;;;;;;;;5036744;28;20225;-65
2022/10/26 00:18:36;;;;;;;6.67;3.37;;;;;;;;;;5054396;28;20206;-65
2022/10/26 00:21:03;;;;;;;6.47;3.83;;;;;;;;;;5054497;28;20662;-66
2022/10/26 00:23:29;;;;;;;7.87;4.27;;;;;;;;;;5071479;22;20232;-68
2022/10/26 00:25:56;;;;;;;9.03;3.73;;;;;;;;;;5052733;28;20645;-68
2022/10/26 00:28:22;;;;;;;8.87;4.07;;;;;;;;;;5052813;28;20182;-69
2022/10/26 00:30:48;;;;;;;5.40;3.80;;;;;;;;;;5054549;28;20182;-68
2022/10/26 00:33:14;;;;;;;8.00;3.40;;;;;;;;;;5054158;28;20205;-71
2022/10/26 00:35:40;;;;;;;7.67;3.70;;;;;;;;;;5053933;28;20261;-68
2022/10/26 00:38:06;;;;;;;9.63;3.67;;;;;;;;;;5053824;28;20195;-68
2022/10/26 00:40:32;;;;;;;8.57;3.63;;;;;;;;;;5054200;28;20178;-69
2022/10/26 00:43:00;;;;;;;4.57;3.40;;;;;;;;;;5053697;28;20198;-71
2022/10/26 00:45:27;;;;;;;9.50;3.77;;;;;;;;;;5053866;28;20244;-69
2022/10/26 00:47:56;;;;;;;8.57;3.23;;;;;;;;;;5052629;28;20643;-69
2022/10/26 00:50:24;;;;;;;11.90;4.07;;;;;;;;;;5053925;28;20221;-68
2022/10/26 00:52:51;;;;;;;5.87;3.03;;;;;;;;;;5053735;28;20201;-71
2022/10/26 00:55:20;;;;;;;7.40;3.40;;;;;;;;;;5053965;28;20189;-68
2022/10/26 00:57:46;;;;;;;11.40;3.60;;;;;;;;;;5053912;28;20181;-68
2022/10/26 01:00:12;;;;;;;7.87;3.50;;;;;;;;;;5052347;28;20190;-68
2022/10/26 01:02:38;;;;;;;10.03;3.93;;;;;;;;;;5052244;28;20194;-71
2022/10/26 01:05:05;;;;;;;13.37;3.50;;;;;;;;;;5053800;28;20182;-71
2022/10/26 01:07:32;;;;;;;11.60;3.90;;;;;;;;;;5052177;28;20185;-68
2022/10/26 01:09:58;;;;;;;5.60;3.10;;;;;;;;;;5052222;28;20240;-69
2022/10/26 01:12:24;;;;;;;7.30;3.10;;;;;;;;;;5053584;28;20719;-71
2022/10/26 01:14:50;;;;;;;11.53;3.30;;;;;;;;;;5052013;28;20178;-69
2022/10/26 01:17:24;;;;;;;5.50;3.27;;;;;;;;;;5053624;28;20513;-69
2022/10/26 01:20:16;;;;;;;10.10;3.50;;;;;;;;;;5053472;28;20280;-68
2022/10/26 01:22:48;;;;;;;7.37;3.17;;;;;;;;;;5029830;28;20237;-71
2022/10/26 01:25:19;;;;;;;6.00;3.20;;;;;;;;;;5053258;28;20171;-68
2022/10/26 01:27:47;;;;;;;10.63;3.40;;;;;;;;;;5053497;28;20170;-68
2022/10/26 01:30:13;;;;;;;12.97;3.47;;;;;;;;;;5051945;28;20189;-68
2022/10/26 01:32:42;;;;;;;12.53;3.20;;;;;;;;;;5051836;28;20289;-69
2022/10/26 01:35:17;;;;;;;7.40;3.13;;;;;;;;;;5052027;28;20178;-68
2022/10/26 01:38:01;;;;;;;6.73;3.10;;;;;;;;;;5053431;28;20194;-68
2022/10/26 01:40:34;;;;;;;7.47;3.13;;;;;;;;;;5053211;28;20612;-70
2022/10/26 01:43:03;;;;;;;10.17;3.00;;;;;;;;;;5053023;28;20198;-71
2022/10/26 01:45:30;;;;;;;13.67;2.90;;;;;;;;;;5051957;28;20281;-70
2022/10/26 01:47:57;;;;;;;8.47;3.03;;;;;;;;;;5053467;28;20174;-70
2022/10/26 01:50:24;;;;;;;7.90;3.10;;;;;;;;;;5053251;28;20533;-70
2022/10/26 01:52:50;;;;;;;10.60;2.90;;;;;;;;;;5051701;28;20552;-71
2022/10/26 01:55:34;;;;;;;6.73;2.97;;;;;;;;;;5051642;28;20647;-71
2022/10/26 01:58:05;;;;;;;7.03;2.80;;;;;;;;;;5053329;28;20337;-70
2022/10/26 02:00:34;;;;;;;7.53;2.47;;;;;;;;;;5051626;28;20642;-68
2022/10/26 02:03:04;;;;;;;4.67;2.77;;;;;;;;;;5053210;28;20198;-68
2022/10/26 02:05:45;;;;;;;8.03;2.67;;;;;;;;;;5054053;28;20666;-69
2022/10/26 02:08:19;;;;;;;8.53;2.67;;;;;;;;;;5077741;28;20167;-70
2022/10/26 02:10:52;;;;;;;6.20;2.90;;;;;;;;;;5076866;28;20647;-69
2022/10/26 02:13:27;;;;;;;4.33;2.70;;;;;;;;;;5079753;28;20183;-69
2022/10/26 02:15:54;;;;;;;7.93;2.73;;;;;;;;;;5070694;28;20220;-68
2022/10/26 02:18:23;;;;;;;8.17;2.80;;;;;;;;;;5061401;28;20237;-71
2022/10/26 02:20:51;;;;;;;8.33;2.77;;;;;;;;;;5057489;28;20178;-68
2022/10/26 02:23:17;;;;;;;3.33;2.37;;;;;;;;;;5055305;28;20690;-69
2022/10/26 02:25:48;;;;;;;6.50;2.60;;;;;;;;;;5056568;28;20177;-68
2022/10/26 02:28:17;;;;;;;5.93;2.60;;;;;;;;;;5055240;28;20693;-71
2022/10/26 02:30:43;;;;;;;8.63;2.57;;;;;;;;;;5056309;28;20221;-71
2022/10/26 02:33:12;;;;;;;6.63;2.80;;;;;;;;;;5056305;28;20337;-71
2022/10/26 02:35:39;;;;;;;6.93;2.70;;;;;;;;;;5056228;28;20223;-71
2022/10/26 02:38:08;;;;;;;9.77;2.87;;;;;;;;;;5054814;28;20579;-73
2022/10/26 02:40:34;;;;;;;8.70;2.77;;;;;;;;;;5056115;28;20185;-73
2022/10/26 02:43:02;;;;;;;4.93;2.50;;;;;;;;;;5056185;28;20197;-71
2022/10/26 02:45:33;;;;;;;6.20;2.67;;;;;;;;;;5056241;28;20182;-70
2022/10/26 02:47:59;;;;;;;8.63;2.80;;;;;;;;;;5054761;28;20232;-68
2022/10/26 02:50:47;;;;;;;10.10;2.80;;;;;;;;;;5056194;28;20635;-70
2022/10/26 02:53:31;;;;;;;3.77;2.47;;;;;;;;;;5054414;28;20198;-69
2022/10/26 02:55:59;;;;;;;3.27;2.30;;;;;;;;;;5055731;28;20201;-68
2022/10/26 02:58:28;;;;;;;7.20;3.17;;;;;;;;;;5054458;28;20688;-71
2022/10/26 03:00:54;;;;;;;10.00;3.00;;;;;;;;;;5054630;28;20174;-70
2022/10/26 03:03:20;;;;;;;3.67;2.40;;;;;;;;;;5055996;28;20209;-69
2022/10/26 03:05:46;;;;;;;6.30;2.83;;;;;;;;;;5054415;28;20186;-69
2022/10/26 03:08:12;;;;;;;8.53;2.60;;;;;;;;;;5055811;28;20669;-69
2022/10/26 03:10:45;;;;;;;7.27;2.23;;;;;;;;;;5054639;28;20240;-68
2022/10/26 03:13:11;;;;;;;6.47;3.37;;;;;;;;;;5056034;28;20252;-69
2022/10/26 03:15:37;;;;;;;8.37;2.47;;;;;;;;;;5054320;28;20182;-68
2022/10/26 03:18:04;;;;;;;6.10;2.60;;;;;;;;;;5054373;28;20198;-68
2022/10/26 03:20:30;;;;;;;8.50;2.60;;;;;;;;;;5054661;28;20201;-71
2022/10/26 03:22:56;;;;;;;6.90;2.60;;;;;;;;;;5054904;28;20229;-69
2022/10/26 03:25:22;;;;;;;6.13;2.90;;;;;;;;;;5055671;28;20183;-68
2022/10/26 03:27:55;;;;;;;9.27;3.03;;;;;;;;;;5053919;28;20567;-68
2022/10/26 03:30:21;;;;;;;8.20;3.37;;;;;;;;;;5055501;28;20231;-68
2022/10/26 03:32:47;;;;;;;8.57;4.50;;;;;;;;;;5054288;28;20750;-68
2022/10/26 03:35:13;;;;;;;15.37;5.60;;;;;;;;;;5054727;28;20269;-68
2022/10/26 03:37:39;;;;;;;12.13;4.97;;;;;;;;;;5054355;28;20231;-68
2022/10/26 03:40:05;;;;;;;10.33;4.93;;;;;;;;;;5055335;28;20209;-68
2022/10/26 03:42:33;;;;;;;11.87;4.87;;;;;;;;;;5053910;28;20213;-68
2022/10/26 03:44:59;;;;;;;12.60;4.13;;;;;;;;;;5055445;28;20174;-68
2022/10/26 03:47:25;;;;;;;7.87;3.63;;;;;;;;;;5054730;28;20183;-69
2022/10/26 03:49:51;;;;;;;6.33;3.40;;;;;;;;;;5053385;28;20190;-68
2022/10/26 03:52:17;;;;;;;8.37;2.80;;;;;;;;;;5053459;28;20194;-71
2022/10/26 03:54:43;;;;;;;5.13;2.93;;;;;;;;;;5054669;28;20175;-71
2022/10/26 03:57:08;;;;;;;4.50;2.57;;;;;;;;;;5053333;28;20619;-68
2022/10/26 03:59:36;;;;;;;9.97;3.57;;;;;;;;;;5053266;28;20704;-69
2022/10/26 04:02:01;;;;;;;5.77;2.67;;;;;;;;;;5053251;28;20204;-68
2022/10/26 04:04:27;;;;;;;6.93;2.70;;;;;;;;;;5054826;28;20702;-68
2022/10/26 04:06:53;;;;;;;7.37;2.80;;;;;;;;;;5053138;28;20270;-70
2022/10/26 04:09:19;;;;;;;3.87;2.30;;;;;;;;;;5053081;28;20563;-69
2022/10/26 04:11:45;;;;;;;10.97;2.70;;;;;;;;;;5054328;28;20232;-69
2022/10/26 04:14:11;;;;;;;6.73;2.70;;;;;;;;;;5054562;28;20652;-68
2022/10/26 04:16:37;;;;;;;6.13;2.20;;;;;;;;;;5054387;28;20266;-68
2022/10/26 04:19:03;;;;;;;9.10;2.80;;;;;;;;;;5054105;28;20230;-68
2022/10/26 04:21:31;;;;;;;6.87;2.53;;;;;;;;;;5054340;28;20254;-69
2022/10/26 04:23:57;;;;;;;5.80;2.60;;;;;;;;;;5052704;28;20248;-68
2022/10/26 04:26:23;;;;;;;4.50;2.23;;;;;;;;;;5052878;28;20216;-68
2022/10/26 04:28:49;;;;;;;6.63;2.30;;;;;;;;;;5052860;28;20552;-71
2022/10/26 04:31:15;;;;;;;5.33;2.53;;;;;;;;;;5053932;28;20714;-68
2022/10/26 04:33:41;;;;;;;4.37;2.10;;;;;;;;;;5054360;28;20275;-68
2022/10/26 04:36:07;;;;;;;7.57;2.50;;;;;;;;;;5054645;28;20197;-68
2022/10/26 04:38:33;;;;;;;7.03;2.47;;;;;;;;;;5053071;28;20674;-70
2022/10/26 04:40:59;;;;;;;8.37;2.43;;;;;;;;;;5053097;28;20184;-69
2022/10/26 04:43:25;;;;;;;4.30;2.20;;;;;;;;;;5052522;28;20242;-69
2022/10/26 04:45:57;;;;;;;4.00;2.23;;;;;;;;;;5053701;28;20292;-69
2022/10/26 04:48:24;;;;;;;6.53;2.10;;;;;;;;;;5053947;28;20179;-69
2022/10/26 04:50:50;;;;;;;8.17;2.00;;;;;;;;;;5053732;28;20182;-69
2022/10/26 04:53:16;;;;;;;8.73;2.40;;;;;;;;;;5052307;28;20733;-69
2022/10/26 04:55:42;;;;;;;6.47;2.23;;;;;;;;;;5052310;28;20196;-69
2022/10/26 04:58:08;;;;;;;5.00;2.27;;;;;;;;;;5053422;28;20743;-69
2022/10/26 05:00:34;;;;;;;7.77;3.10;;;;;;;;;;5053392;28;20177;-69
2022/10/26 05:03:01;;;;;;;6.43;2.23;;;;;;;;;;5051969;28;20209;-69
2022/10/26 05:05:27;;;;;;;5.60;2.63;;;;;;;;;;5052039;28;20278;-70
2022/10/26 05:07:54;;;;;;;6.17;2.27;;;;;;;;;;5052060;28;20236;-68
2022/10/26 05:10:20;;;;;;;4.23;2.20;;;;;;;;;;5052023;28;20320;-67
2022/10/26 05:12:50;;;;;;;7.07;2.33;;;;;;;;;;5051936;28;20209;-69
2022/10/26 05:15:16;;;;;;;5.50;2.10;;;;;;;;;;5051900;28;20174;-70
2022/10/26 05:17:42;;;;;;;9.53;2.60;;;;;;;;;;5051995;28;20178;-69
2022/10/26 05:20:12;;;;;;;11.87;2.27;;;;;;;;;;5051804;28;20553;-69
2022/10/26 05:22:38;;;;;;;4.37;2.00;;;;;;;;;;5053020;28;20717;-69
2022/10/26 05:25:04;;;;;;;5.07;2.50;;;;;;;;;;5053339;28;20514;-69
2022/10/26 05:27:30;;;;;;;4.97;2.00;;;;;;;;;;5051838;28;20647;-69
2022/10/26 05:29:56;;;;;;;7.47;2.10;;;;;;;;;;5051683;28;20280;-70
2022/10/26 05:32:22;;;;;;;3.40;2.40;;;;;;;;;;5053022;28;20199;-69
2022/10/26 05:34:48;;;;;;;8.97;2.00;;;;;;;;;;5051807;28;20240;-69
2022/10/26 05:37:13;;;;;;;16.47;2.60;;;;;;;;;;5053026;28;20235;-69
2022/10/26 05:39:39;;;;;;;8.17;2.63;;;;;;;;;;5051715;28;20209;-69
2022/10/26 05:42:05;;;;;;;3.07;2.00;;;;;;;;;;5056828;28;20205;-69
2022/10/26 05:44:31;;;;;;;6.60;2.40;;;;;;;;;;5055935;28;20209;-70
2022/10/26 05:46:57;;;;;;;5.73;2.10;;;;;;;;;;5055717;28;20181;-69
2022/10/26 05:49:23;;;;;;;5.67;2.23;;;;;;;;;;5056953;28;20193;-70
2022/10/26 05:51:49;;;;;;;8.47;2.40;;;;;;;;;;5055679;28;20540;-69
2022/10/26 05:54:15;;;;;;;5.10;2.43;;;;;;;;;;5055632;28;20220;-69
2022/10/26 05:56:41;;;;;;;8.93;2.67;;;;;;;;;;5055714;28;20215;-69
2022/10/26 05:59:14;;;;;;;5.67;2.30;;;;;;;;;;5055642;28;20213;-68
2022/10/26 06:01:43;;;;;;;5.57;2.77;;;;;;;;;;5056760;28;20646;-69
2022/10/26 06:04:12;;;;;;;5.80;2.23;;;;;;;;;;5055440;28;20313;-69
2022/10/26 06:06:41;;;;;;;7.70;2.57;;;;;;;;;;5056745;28;20216;-69
2022/10/26 06:09:10;;;;;;;6.87;2.67;;;;;;;;;;5056647;28;20189;-69
2022/10/26 06:11:36;;;;;;;4.17;2.37;;;;;;;;;;5056659;28;20658;-69
2022/10/26 06:14:02;;;;;;;8.77;2.50;;;;;;;;;;5056537;28;20622;-70
2022/10/26 06:16:47;;;;;;;5.03;2.10;;;;;;;;;;5056637;28;20182;-69
2022/10/26 06:19:28;;;;;;;6.90;2.90;;;;;;;;;;5056500;28;20654;-68
2022/10/26 06:22:00;;;;;;;4.43;2.60;;;;;;;;;;5056254;28;20550;-69
2022/10/26 06:24:41;;;;;;;7.80;2.73;;;;;;;;;;5056640;28;20258;-70
2022/10/26 06:27:43;;;;;;;6.93;2.63;;;;;;;;;;5055114;28;20198;-69
2022/10/26 06:30:10;;;;;;;6.63;2.50;;;;;;;;;;4994900;28;20184;-69
2022/10/26 06:32:37;;;;;;;4.70;2.20;;;;;;;;;;5044512;28;20293;-69
2022/10/26 06:35:24;;;;;;;5.33;2.20;;;;;;;;;;5054933;28;20546;-70
2022/10/26 06:37:50;;;;;;;4.33;2.27;;;;;;;;;;5054828;28;20182;-69
2022/10/26 06:40:17;;;;;;;7.17;2.13;;;;;;;;;;5056039;28;20179;-69
2022/10/26 06:42:43;;;;;;;7.60;2.73;;;;;;;;;;5055870;28;20205;-69
2022/10/26 06:45:13;;;;;;;4.30;2.27;;;;;;;;;;5055913;28;20182;-69
2022/10/26 06:47:46;;;;;;;5.50;2.37;;;;;;;;;;5055869;28;20179;-69
2022/10/26 06:50:25;;;;;;;6.47;2.30;;;;;;;;;;5054636;28;20205;-70
2022/10/26 06:52:54;;;;;;;3.47;2.20;;;;;;;;;;5055796;28;20221;-69
2022/10/26 06:55:21;;;;;;;8.97;2.37;;;;;;;;;;5055819;28;20643;-68
2022/10/26 06:57:47;;;;;;;7.47;2.60;;;;;;;;;;5054487;28;20281;-70
2022/10/26 07:00:13;;;;;;;5.10;2.40;;;;;;;;;;5055656;28;20228;-69
2022/10/26 07:02:39;;;;;;;9.23;2.40;;;;;;;;;;5054384;28;20199;-69
2022/10/26 07:05:09;;;;;;;5.53;2.00;;;;;;;;;;5055630;28;20171;-69
2022/10/26 07:07:37;;;;;;;7.03;2.10;;;;;;;;;;5055657;28;20175;-69
2022/10/26 07:10:03;;;;;;;3.40;2.10;;;;;;;;;;5055493;28;20182;-69
2022/10/26 07:12:29;;;;;;;5.93;2.27;;;;;;;;;;5055920;28;20205;-69
2022/10/26 07:14:54;;;;;;;4.13;2.53;;;;;;;;;;5055493;28;20183;-69
2022/10/26 07:17:20;;;;;;;6.57;2.03;;;;;;;;;;5055377;28;20178;-68
2022/10/26 07:19:46;;;;;;;6.70;2.50;;;;;;;;;;5054082;28;20263;-69
2022/10/26 07:22:12;;;;;;;5.07;2.20;;;;;;;;;;5053790;28;20228;-69
2022/10/26 07:24:39;;;;;;;2.97;2.63;;;;;;;;;;5056096;28;20174;-69
2022/10/26 07:27:04;;;;;;;6.60;2.03;;;;;;;;;;5055428;28;20261;-69
2022/10/26 07:29:30;;;;;;;4.70;1.90;;;;;;;;;;5053935;28;20214;-70
2022/10/26 07:31:56;;;;;;;6.40;2.30;;;;;;;;;;5054963;28;20174;-69
2022/10/26 07:34:22;;;;;;;8.03;2.50;;;;;;;;;;5055099;28;20616;-69
2022/10/26 07:36:50;;;;;;;4.93;2.40;;;;;;;;;;5053685;28;20588;-69
2022/10/26 07:39:16;;;;;;;7.13;2.60;;;;;;;;;;5055113;28;20190;-69
2022/10/26 07:41:42;;;;;;;6.20;2.90;;;;;;;;;;5056164;28;20178;-69
2022/10/26 07:44:08;;;;;;;4.87;2.63;;;;;;;;;;5053457;28;20622;-69
2022/10/26 07:46:34;;;;;;;9.50;3.20;;;;;;;;;;5054872;28;20639;-69
2022/10/26 07:48:59;;;;;;;6.37;3.20;;;;;;;;;;5055241;28;20178;-69
2022/10/26 07:51:25;;;;;;;13.47;3.40;;;;;;;;;;5053635;28;20561;-71
2022/10/26 07:53:51;;;;;;;7.53;4.10;;;;;;;;;;5054748;28;20666;-69
2022/10/26 07:56:17;;;;;;;7.83;3.30;;;;;;;;;;5054930;28;20179;-70
2022/10/26 07:58:43;;;;;;;12.03;3.37;;;;;;;;;;5053284;28;20202;-69
2022/10/26 08:01:11;;;;;;;6.03;3.07;;;;;;;;;;5055442;28;20178;-69
2022/10/26 08:03:37;;;;;;;6.67;3.23;;;;;;;;;;5060805;28;20202;-68
2022/10/26 08:06:03;;;;;;;8.90;3.00;;;;;;;;;;5062168;28;20193;-69
2022/10/26 08:08:30;;;;;;;7.77;2.80;;;;;;;;;;5061139;28;20220;-69
2022/10/26 08:10:56;;;;;;;4.33;2.80;;;;;;;;;;5058823;28;20635;-68
2022/10/26 08:13:22;;;;;;;8.57;2.77;;;;;;;;;;5053586;28;20750;-69
2022/10/26 08:15:48;;;;;;;9.00;2.83;;;;;;;;;;5054532;28;20187;-68
2022/10/26 08:18:14;;;;;;;4.73;2.60;;;;;;;;;;5054276;28;20585;-69
2022/10/26 08:20:40;;;;;;;5.53;2.90;;;;;;;;;;5053009;28;20269;-68
2022/10/26 08:23:07;;;;;;;8.50;2.60;;;;;;;;;;5052604;28;20245;-69
2022/10/26 08:25:33;;;;;;;8.83;3.60;;;;;;;;;;5052795;28;20182;-69
2022/10/26 08:28:03;;;;;;;7.60;3.03;;;;;;;;;;5054097;28;20210;-70
2022/10/26 08:30:30;;;;;;;7.60;2.90;;;;;;;;;;5054148;28;20175;-68
2022/10/26 08:33:03;;;;;;;8.27;2.97;;;;;;;;;;5053969;28;20198;-69
2022/10/26 08:35:29;;;;;;;6.37;2.63;;;;;;;;;;5052676;28;20179;-70
2022/10/26 08:37:55;;;;;;;7.80;5.17;;;;;;;;;;5052591;28;20189;-69
2022/10/26 08:40:31;;;;;;;6.30;3.20;;;;;;;;;;5052555;28;20240;-69
2022/10/26 08:43:00;;;;;;;6.33;3.13;;;;;;;;;;5053690;28;20201;-69
2022/10/26 08:45:28;;;;;;;8.43;4.00;;;;;;;;;;5052425;28;20189;-69
2022/10/26 08:47:57;;;;;;;9.50;4.07;;;;;;;;;;5052502;28;20602;-70
2022/10/26 08:50:29;;;;;;;10.50;4.07;;;;;;;;;;5053617;28;20183;-69
2022/10/26 08:53:06;;;;;;;9.87;3.63;;;;;;;;;;5054124;28;20551;-69
2022/10/26 08:55:41;;;;;;;8.73;3.53;;;;;;;;;;5053677;28;20623;-69
2022/10/26 08:58:12;;;;;;;8.90;3.60;;;;;;;;;;5053437;28;20200;-69
2022/10/26 09:00:38;;;;;;;8.97;4.17;;;;;;;;;;5053511;28;20588;-68
2022/10/26 09:03:11;;;;;;;11.27;4.23;;;;;;;;;;5052198;28;20199;-69
2022/10/26 09:05:46;;;;;;;8.20;4.37;;;;;;;;;;5053654;28;20638;-68
2022/10/26 09:08:24;;;;;;;8.73;4.03;;;;;;;;;;5053839;28;20205;-68
2022/10/26 09:11:12;;;;;;;9.07;3.70;;;;;;;;;;5053402;28;20161;-69
2022/10/26 09:13:56;;;;;;;8.53;3.40;;;;;;;;;;5055755;28;20680;-69
2022/10/26 09:16:41;;;;;;;5.33;2.83;;;;;;;;;;5057968;28;20662;-69
2022/10/26 09:19:24;;;;;;;4.27;2.57;;;;;;;;;;5058725;28;20198;-68
2022/10/26 09:22:03;;;;;;;6.03;2.87;;;;;;;;;;5057238;28;20174;-68
2022/10/26 09:24:33;;;;;;;12.53;3.03;;;;;;;;;;5058816;28;20181;-67
2022/10/26 09:27:11;;;;;;;5.00;2.63;;;;;;;;;;5058129;28;20180;-69
2022/10/26 09:29:41;;;;;;;6.87;2.67;;;;;;;;;;5053508;28;20178;-68
2022/10/26 09:32:13;;;;;;;8.33;3.53;;;;;;;;;;5051869;28;20179;-68
2022/10/26 09:34:42;;;;;;;8.27;2.53;;;;;;;;;;5051957;28;20245;-68
2022/10/26 09:37:13;;;;;;;10.07;2.70;;;;;;;;;;5053356;28;20214;-68
2022/10/26 09:39:42;;;;;;;8.57;2.83;;;;;;;;;;5053746;28;20191;-68
2022/10/26 09:42:11;;;;;;;5.53;2.87;;;;;;;;;;5051805;28;20185;-68
2022/10/26 09:44:40;;;;;;;7.50;2.93;;;;;;;;;;5051928;28;20179;-68
2022/10/26 09:47:12;;;;;;;4.53;2.70;;;;;;;;;;5052022;28;20186;-68
2022/10/26 09:49:47;;;;;;;6.43;2.80;;;;;;;;;;5053441;28;20223;-68
2022/10/26 09:52:13;;;;;;;4.90;2.60;;;;;;;;;;5052967;28;20216;-69
2022/10/26 09:54:39;;;;;;;10.87;3.13;;;;;;;;;;5051822;28;20187;-69
2022/10/26 09:57:06;;;;;;;7.50;2.67;;;;;;;;;;5053096;28;20531;-68
2022/10/26 09:59:33;;;;;;;4.67;2.80;;;;;;;;;;5052839;28;20202;-69
2022/10/26 10:01:59;;;;;;;5.70;2.77;;;;;;;;;;5053077;28;20183;-68
2022/10/26 10:04:25;;;;;;;7.27;2.50;;;;;;;;;;5053209;28;20238;-69
2022/10/26 10:06:53;;;;;;;6.30;2.40;;;;;;;;;;5053188;28;20171;-68
2022/10/26 10:09:20;;;;;;;10.33;2.67;;;;;;;;;;5051489;28;20269;-69
2022/10/26 10:11:53;;;;;;;5.73;3.20;;;;;;;;;;5051492;28;20182;-68
2022/10/26 10:14:20;;;;;;;5.73;2.90;;;;;;;;;;5051804;28;20574;-68
2022/10/26 10:17:09;;;;;;;6.60;3.03;;;;;;;;;;5052715;28;20179;-68
2022/10/26 10:19:36;;;;;;;7.63;2.90;;;;;;;;;;5051676;28;20277;-69
2022/10/26 10:22:12;;;;;;;6.80;2.77;;;;;;;;;;5051562;28;20265;-69
2022/10/26 10:24:42;;;;;;;9.07;3.30;;;;;;;;;;5051587;28;20242;-69
2022/10/26 10:27:14;;;;;;;5.00;2.67;;;;;;;;;;5055529;28;20171;-70
2022/10/26 10:29:45;;;;;;;8.27;2.90;;;;;;;;;;5056570;28;20183;-69
2022/10/26 10:32:21;;;;;;;5.20;3.07;;;;;;;;;;5056538;28;20186;-68
2022/10/26 10:34:47;;;;;;;5.40;2.90;;;;;;;;;;5057425;28;20162;-68
2022/10/26 10:37:29;;;;;;;9.57;3.60;;;;;;;;;;5055681;28;20178;-68
2022/10/26 10:39:59;;;;;;;6.00;3.00;;;;;;;;;;5056917;28;20666;-68
2022/10/26 10:42:27;;;;;;;4.93;2.80;;;;;;;;;;5055892;28;20226;-68
2022/10/26 10:44:54;;;;;;;4.50;2.70;;;;;;;;;;5054905;28;20213;-68
2022/10/26 10:47:25;;;;;;;6.67;2.93;;;;;;;;;;5054794;28;20528;-68
2022/10/26 10:49:53;;;;;;;9.07;3.20;;;;;;;;;;5054752;28;20174;-68
2022/10/26 10:52:23;;;;;;;6.10;2.87;;;;;;;;;;5055881;28;20206;-68
2022/10/26 10:54:50;;;;;;;4.17;2.50;;;;;;;;;;5055915;28;20183;-68
2022/10/26 10:57:35;;;;;;;7.37;3.00;;;;;;;;;;5056179;28;20232;-68
2022/10/26 11:00:03;;;;;;;8.50;2.50;;;;;;;;;;5055880;28;20202;-69
2022/10/26 11:02:29;;;;;;;8.57;2.93;;;;;;;;;;5054443;28;20200;-69
2022/10/26 11:05:18;;;;;;;4.20;2.40;;;;;;;;;;5056365;28;20177;-69
2022/10/26 11:07:47;;;;;;;5.50;3.00;;;;;;;;;;5055731;28;20616;-68
2022/10/26 11:10:14;;;;;;;8.20;3.10;;;;;;;;;;5055531;28;20183;-68
2022/10/26 11:12:44;;;;;;;7.67;2.70;;;;;;;;;;5054174;28;20202;-69
2022/10/26 11:15:13;;;;;;;10.63;2.73;;;;;;;;;;5054123;28;20667;-68
2022/10/26 11:17:59;;;;;;;8.47;2.77;;;;;;;;;;5055650;28;20718;-68
2022/10/26 11:20:27;;;;;;;6.93;2.67;;;;;;;;;;5054021;28;20678;-69
2022/10/26 11:22:59;;;;;;;7.77;2.63;;;;;;;;;;5054988;28;20218;-67
2022/10/26 11:25:27;;;;;;;10.50;2.73;;;;;;;;;;5054181;28;20178;-68
2022/10/26 11:27:59;;;;;;;6.33;3.00;;;;;;;;;;5052851;28;20189;-67
2022/10/26 11:30:25;;;;;;;5.30;2.93;;;;;;;;;;5054635;28;20526;-69
2022/10/26 11:32:53;;;;;;;6.93;2.80;;;;;;;;;;5052661;28;20206;-68
2022/10/26 11:35:43;;;;;;;6.67;2.40;;;;;;;;;;5052768;28;20183;-69
2022/10/26 11:38:15;;;;;;;7.50;2.87;;;;;;;;;;5053402;28;20171;-69
2022/10/26 11:40:44;;;;;;;6.70;2.50;;;;;;;;;;5053946;28;20170;-69
2022/10/26 11:43:16;;;;;;;5.83;2.57;;;;;;;;;;5052515;28;20241;-68
2022/10/26 11:45:44;;;;;;;5.07;2.40;;;;;;;;;;5052567;28;20179;-69
2022/10/26 11:48:17;;;;;;;6.10;2.60;;;;;;;;;;5053786;28;20178;-69
2022/10/26 11:50:44;;;;;;;5.13;2.20;;;;;;;;;;5053691;28;20186;-68
2022/10/26 11:53:10;;;;;;;3.93;2.30;;;;;;;;;;5054150;28;20194;-68
2022/10/26 11:55:37;;;;;;;4.73;2.40;;;;;;;;;;5054036;28;20174;-68
2022/10/26 11:58:04;;;;;;;4.70;2.40;;;;;;;;;;5052241;28;20189;-68
2022/10/26 12:00:31;;;;;;;4.03;2.30;;;;;;;;;;5052280;28;20186;-69
2022/10/26 12:03:07;;;;;;;5.50;2.67;;;;;;;;;;5052220;28;20239;-68
2022/10/26 12:05:41;;;;;;;7.83;2.40;;;;;;;;;;5052511;28;20189;-68
2022/10/26 12:08:15;;;;;;;4.77;2.20;;;;;;;;;;5052267;28;20163;-69
2022/10/26 12:10:43;;;;;;;11.33;2.53;;;;;;;;;;5052160;28;20205;-69
2022/10/26 12:13:26;;;;;;;6.97;2.63;;;;;;;;;;5053466;28;20195;-69
2022/10/26 12:15:52;;;;;;;7.93;3.63;;;;;;;;;;5052556;28;20166;-69
2022/10/26 12:18:21;;;;;;;3.97;2.30;;;;;;;;;;5053586;28;20174;-69
2022/10/26 12:20:52;;;;;;;5.37;2.60;;;;;;;;;;5053284;28;20512;-68
2022/10/26 12:23:18;;;;;;;2.83;1.80;;;;;;;;;;5018198;28;1015092;-68
2022/10/26 12:25:44;;;;;;;4.73;2.07;;;;;;;;;;5052839;28;20581;-68
2022/10/26 12:28:40;;;;;;;2.37;1.97;;;;;;;;;;5053983;28;20183;-69
2022/10/26 12:31:29;;;;;;;4.70;2.40;;;;;;;;;;5036124;28;20658;-67
2022/10/26 12:33:55;;;;;;;5.80;1.90;;;;;;;;;;5046306;28;20554;-68
2022/10/26 12:36:39;;;;;;;4.77;2.10;;;;;;;;;;5054121;28;20178;-68
2022/10/26 12:39:25;;;;;;;3.87;2.10;;;;;;;;;;5054155;28;20692;-68
2022/10/26 12:41:55;;;;;;;2.83;1.93;;;;;;;;;;5052604;28;20174;-68
2022/10/26 12:44:31;;;;;;;3.87;2.10;;;;;;;;;;5053783;28;20194;-68
2022/10/26 12:46:57;;;;;;;3.60;2.00;;;;;;;;;;5053977;28;20630;-69
2022/10/26 12:49:41;;;;;;;5.87;1.93;;;;;;;;;;5052189;28;20186;-68
2022/10/26 12:52:17;;;;;;;3.43;2.30;;;;;;;;;;5052381;28;20561;-69
2022/10/26 12:54:49;;;;;;;5.83;2.20;;;;;;;;;;5052618;28;20174;-68
2022/10/26 12:57:23;;;;;;;5.27;2.80;;;;;;;;;;5052596;28;20174;-67
2022/10/26 12:59:52;;;;;;;4.37;2.60;;;;;;;;;;5052611;28;20197;-68
2022/10/26 13:02:29;;;;;;;4.07;2.03;;;;;;;;;;5053718;28;20201;-67
2022/10/26 13:05:14;;;;;;;3.60;2.00;;;;;;;;;;5053885;28;20603;-67
2022/10/26 13:07:40;;;;;;;5.83;2.27;;;;;;;;;;5053787;28;20174;-68
2022/10/26 13:10:18;;;;;;;4.60;2.20;;;;;;;;;;5053390;28;20175;-68
2022/10/26 13:12:49;;;;;;;4.87;1.97;;;;;;;;;;5053808;28;20229;-67
2022/10/26 13:15:26;;;;;;;3.87;2.30;;;;;;;;;;5053221;28;20182;-68
2022/10/26 13:17:54;;;;;;;3.70;2.00;;;;;;;;;;5052003;28;20187;-68
2022/10/26 13:20:20;;;;;;;2.70;1.70;;;;;;;;;;5051838;28;20206;-69
2022/10/26 13:22:47;;;;;;;6.03;2.23;;;;;;;;;;5052992;28;20709;-69
2022/10/26 13:25:18;;;;;;;7.07;2.30;;;;;;;;;;5051892;28;20185;-68
2022/10/26 13:27:44;;;;;;;4.00;2.10;;;;;;;;;;5053173;28;20630;-68
2022/10/26 13:30:21;;;;;;;3.70;2.10;;;;;;;;;;5053293;28;20182;-68
2022/10/26 13:32:57;;;;;;;3.87;2.57;;;;;;;;;;5052907;28;20216;-68
2022/10/26 13:35:23;;;;;;;6.97;2.60;;;;;;;;;;5053630;28;20177;-70
2022/10/26 13:37:50;;;;;;;5.33;2.03;;;;;;;;;;5052984;28;20186;-68
2022/10/26 13:40:18;;;;;;;2.97;1.60;;;;;;;;;;5051626;28;20209;-68
2022/10/26 13:42:48;;;;;;;2.67;2.07;;;;;;;;;;5052742;28;20194;-68
2022/10/26 13:45:17;;;;;;;8.10;1.90;;;;;;;;;;5053128;28;20178;-68
2022/10/26 13:47:49;;;;;;;7.53;1.90;;;;;;;;;;5053237;28;20193;-68
2022/10/26 13:50:16;;;;;;;7.10;2.00;;;;;;;;;;5051643;28;20277;-68
2022/10/26 13:52:47;;;;;;;3.40;1.77;;;;;;;;;;5052948;28;20198;-68
2022/10/26 13:55:24;;;;;;;4.00;1.93;;;;;;;;;;5052866;28;20186;-68
2022/10/26 13:58:05;;;;;;;6.57;2.00;;;;;;;;;;5056861;28;20665;-68
2022/10/26 14:00:31;;;;;;;7.23;1.77;;;;;;;;;;5063549;28;20642;-68
2022/10/26 14:02:57;;;;;;;3.80;2.10;;;;;;;;;;5067125;28;20201;-68
2022/10/26 14:05:23;;;;;;;5.40;1.90;;;;;;;;;;5068022;28;20183;-69
2022/10/26 14:07:51;;;;;;;4.00;2.00;;;;;;;;;;5061821;28;20707;-67
2022/10/26 14:10:23;;;;;;;3.87;2.10;;;;;;;;;;5055982;28;20554;-69
2022/10/26 14:12:50;;;;;;;3.73;1.90;;;;;;;;;;5056928;28;20202;-68
2022/10/26 14:15:17;;;;;;;5.10;2.13;;;;;;;;;;5057007;28;20178;-69
2022/10/26 14:17:49;;;;;;;4.43;1.90;;;;;;;;;;5055252;28;20617;-69
2022/10/26 14:20:19;;;;;;;2.97;1.77;;;;;;;;;;5055691;28;20193;-68
2022/10/26 14:22:45;;;;;;;2.37;1.70;;;;;;;;;;5056553;28;20214;-68
2022/10/26 14:25:21;;;;;;;4.60;1.90;;;;;;;;;;5055167;28;20178;-68
2022/10/26 14:27:47;;;;;;;4.80;2.00;;;;;;;;;;5055211;28;20167;-69
2022/10/26 14:30:21;;;;;;;4.77;2.20;;;;;;;;;;5056178;28;20193;-68
2022/10/26 14:32:47;;;;;;;2.77;1.80;;;;;;;;;;5054903;28;20203;-68
2022/10/26 14:35:13;;;;;;;4.17;1.97;;;;;;;;;;5056378;28;20598;-68
2022/10/26 14:37:44;;;;;;;3.33;2.13;;;;;;;;;;5056243;28;20214;-68
2022/10/26 14:40:15;;;;;;;2.23;1.70;;;;;;;;;;5056410;28;20190;-68
2022/10/26 14:42:44;;;;;;;2.97;2.10;;;;;;;;;;5054764;28;20198;-69
2022/10/26 14:45:19;;;;;;;4.47;2.03;;;;;;;;;;5054826;28;20183;-68
2022/10/26 14:47:48;;;;;;;3.33;1.80;;;;;;;;;;5055949;28;20544;-68
2022/10/26 14:50:22;;;;;;;3.00;1.93;;;;;;;;;;5056407;28;20171;-68
2022/10/26 14:55:21;;;;;;;3.73;1.90;;;;;;;;;;5073643;22;20233;-67
2022/10/26 14:57:48;;;;;;;2.73;1.80;;;;;;;;;;5056013;28;20190;-67